Time;durP1;ratioP1;P1;durP2;ratioP2;P2;SDS_P1;SDS_P2;PMS_P1;PMS_P2;Temp;Humidity;BMP_temperature;BMP_pressure;BME280_temperature;BME280_humidity;BME280_pressure;Samples;Min_cycle;Max_cycle;Signal;HPM_P1;HPM_P2
2021/06/22 00:00:35;;;;;;;14.20;5.22;;;;;;;0.01;0.00;59042.03;10359958;28;20146;-59
2021/06/22 00:05:35;;;;;;;11.88;4.32;;;;;;;0.01;0.00;59042.03;10359532;28;20114;-58
2021/06/22 00:10:35;;;;;;;5.78;4.35;;;;;;;0.01;0.00;59042.03;10359593;28;20372;-59
2021/06/22 00:15:34;;;;;;;6.20;4.85;;;;;;;0.01;0.00;59042.03;10359919;28;20048;-59
2021/06/22 00:20:33;;;;;;;9.25;4.32;;;;;;;0.01;0.00;59042.03;10359846;28;20051;-57
2021/06/22 00:25:32;;;;;;;6.20;4.25;;;;;;;0.01;0.00;59042.03;10357782;28;20114;-58
2021/06/22 00:30:32;;;;;;;4.93;4.43;;;;;;;0.01;0.00;59042.03;10358823;28;20505;-58
2021/06/22 00:35:31;;;;;;;10.15;4.82;;;;;;;0.01;0.00;59042.03;10359599;28;20048;-59
2021/06/22 00:40:30;;;;;;;10.02;5.13;;;;;;;0.01;0.00;59042.03;10358470;28;20047;-59
2021/06/22 00:45:33;;;;;;;6.30;4.53;;;;;;;0.01;0.00;59042.03;10340488;28;20048;-59
2021/06/22 00:50:40;;;;;;;10.15;5.03;;;;;;;0.01;0.00;59042.03;10339620;28;20350;-58
2021/06/22 00:55:40;;;;;;;7.05;4.43;;;;;;;0.01;0.00;59042.03;10339131;28;20520;-60
2021/06/22 01:00:55;;;;;;;7.35;4.55;;;;;;;0.01;0.00;59042.03;10339146;28;20061;-59
2021/06/22 01:05:56;;;;;;;6.85;4.55;;;;;;;0.01;0.00;59042.03;10357831;28;20080;-59
2021/06/22 01:10:55;;;;;;;7.85;5.13;;;;;;;0.01;0.00;59042.03;10357349;28;20078;-59
2021/06/22 01:15:54;;;;;;;10.60;4.57;;;;;;;0.01;0.00;59042.03;10356271;28;20082;-59
2021/06/22 01:20:57;;;;;;;6.10;4.65;;;;;;;0.01;0.00;59042.03;10338643;28;20036;-60
2021/06/22 01:26:03;;;;;;;11.00;4.50;;;;;;;0.01;0.00;59042.03;10338703;28;20056;-59
2021/06/22 01:31:04;;;;;;;8.60;4.05;;;;;;;0.01;0.00;59042.03;10356261;28;20052;-59
2021/06/22 01:36:05;;;;;;;7.03;4.10;;;;;;;0.01;0.00;59042.03;10338876;28;20048;-59
2021/06/22 01:41:04;;;;;;;8.20;4.72;;;;;;;0.01;0.00;59042.03;10356890;28;20071;-59
2021/06/22 01:46:04;;;;;;;10.40;5.47;;;;;;;0.01;0.00;59042.03;10338033;28;20048;-59
2021/06/22 01:51:05;;;;;;;8.82;4.53;;;;;;;0.01;0.00;59042.03;10356485;28;20071;-59
2021/06/22 01:56:04;;;;;;;12.88;4.72;;;;;;;0.01;0.00;59042.03;10346091;28;20047;-59
2021/06/22 02:01:06;;;;;;;8.48;5.00;;;;;;;0.01;0.00;59042.03;10347004;28;20502;-59
2021/06/22 02:06:21;;;;;;;8.73;5.35;;;;;;;0.01;0.00;59042.03;10346135;28;20161;-58
2021/06/22 02:11:59;;;;;;;5.32;4.90;;;;;;;0.01;0.00;59042.03;10158622;28;20085;-59
2021/06/22 02:17:00;;;;;;;10.40;5.10;;;;;;;0.01;0.00;59042.03;10298330;28;20048;-59
2021/06/22 02:22:01;;;;;;;6.90;5.18;;;;;;;0.01;0.00;59042.03;10364156;28;20051;-59
2021/06/22 02:27:22;;;;;;;6.45;5.25;;;;;;;0.01;0.00;59042.03;10345583;28;20055;-59
2021/06/22 02:32:24;;;;;;;9.00;5.20;;;;;;;0.01;0.00;59042.03;10345320;28;20060;-55
2021/06/22 02:37:30;;;;;;;6.70;5.10;;;;;;;0.01;0.00;59042.03;10344168;28;20055;-59
2021/06/22 02:42:29;;;;;;;7.70;4.55;;;;;;;0.01;0.00;59042.03;10344351;28;20055;-58
2021/06/22 02:47:29;;;;;;;7.90;4.50;;;;;;;0.01;0.00;59042.03;10364017;28;20468;-58
2021/06/22 02:52:30;;;;;;;7.22;4.88;;;;;;;0.01;0.00;59042.03;10344163;28;20080;-57
2021/06/22 02:57:29;;;;;;;12.05;5.13;;;;;;;0.01;0.00;59042.03;10363639;28;20044;-53
2021/06/22 03:02:30;;;;;;;5.68;4.68;;;;;;;0.01;0.00;59042.03;10343994;28;20119;-59
2021/06/22 03:07:30;;;;;;;8.63;5.45;;;;;;;0.01;0.00;59042.03;10362600;28;20457;-59
2021/06/22 03:12:29;;;;;;;6.82;5.03;;;;;;;0.01;0.00;59042.03;10361348;28;20059;-57
2021/06/22 03:17:50;;;;;;;6.57;5.78;;;;;;;0.01;0.00;59042.03;10342964;28;20064;-52
2021/06/22 03:22:52;;;;;;;10.85;5.85;;;;;;;0.01;0.00;59042.03;10343355;28;20058;-51
2021/06/22 03:27:53;;;;;;;9.43;5.90;;;;;;;0.01;0.00;59042.03;10342650;28;20509;-51
2021/06/22 03:33:12;;;;;;;9.27;6.30;;;;;;;0.01;0.00;59042.03;10342836;28;20044;-50
2021/06/22 03:38:12;;;;;;;8.90;6.43;;;;;;;0.01;0.00;59042.03;10359824;28;20040;-52
2021/06/22 03:43:12;;;;;;;9.10;5.40;;;;;;;0.01;0.00;59042.03;10342209;28;20059;-52
2021/06/22 03:48:23;;;;;;;14.90;5.35;;;;;;;0.01;0.00;59042.03;10360489;28;20075;-53
2021/06/22 03:53:24;;;;;;;11.57;6.10;;;;;;;0.01;0.00;59042.03;10359142;28;20168;-53
2021/06/22 03:58:24;;;;;;;13.60;8.60;;;;;;;0.01;0.00;59042.03;10358937;28;20052;-54
2021/06/22 04:03:27;;;;;;;;;;;;;;;0.01;0.00;59042.03;10342292;28;20517;-54
2021/06/22 04:08:55;;;;;;;23.17;10.40;;;;;;;0.01;0.00;59042.03;10359613;28;19950;-51
2021/06/22 04:13:54;;;;;;;9.23;6.50;;;;;;;0.01;0.00;59042.03;10358884;28;20056;-49
2021/06/22 04:18:53;;;;;;;20.55;11.57;;;;;;;0.01;0.00;59042.03;10359107;28;20409;-55
2021/06/22 04:23:58;;;;;;;14.43;8.70;;;;;;;0.01;0.00;59042.03;10340570;28;20052;-50
2021/06/22 04:28:57;;;;;;;9.05;6.32;;;;;;;0.01;0.00;59042.03;10339731;28;20060;-48
2021/06/22 04:33:56;;;;;;;13.40;6.72;;;;;;;0.01;0.00;59042.03;10358221;28;20087;-50
2021/06/22 04:38:55;;;;;;;11.88;6.85;;;;;;;0.01;0.00;59042.03;10358602;28;20035;-50
2021/06/22 04:43:55;;;;;;;10.68;6.93;;;;;;;0.01;0.00;59042.03;10354267;28;20111;-49
2021/06/22 04:48:54;;;;;;;10.32;6.75;;;;;;;0.01;0.00;59042.03;10354014;28;20064;-52
2021/06/22 04:53:53;;;;;;;9.13;6.82;;;;;;;0.01;0.00;59042.03;10351272;28;20072;-56
2021/06/22 04:58:53;;;;;;;14.05;7.65;;;;;;;0.01;0.00;59042.03;10350967;28;20079;-54
2021/06/22 05:03:53;;;;;;;16.02;10.45;;;;;;;0.01;0.00;59042.03;10353521;28;20265;-54
2021/06/22 05:08:52;;;;;;;16.65;8.77;;;;;;;0.01;0.00;59042.03;10352650;28;20082;-55
2021/06/22 05:13:51;;;;;;;15.95;7.82;;;;;;;0.01;0.00;59042.03;10357381;28;20051;-53
2021/06/22 05:18:50;;;;;;;16.95;7.97;;;;;;;0.01;0.00;59042.03;10357211;28;20044;-54
2021/06/22 05:23:51;;;;;;;10.23;7.28;;;;;;;0.01;0.00;59042.03;10356835;28;20417;-54
2021/06/22 05:28:50;;;;;;;14.40;6.68;;;;;;;0.01;0.00;59042.03;10355927;28;20095;-55
2021/06/22 05:33:48;;;;;;;12.40;6.90;;;;;;;0.01;0.00;59042.03;10356742;28;20044;-53
2021/06/22 05:38:47;;;;;;;8.77;7.15;;;;;;;0.01;0.00;59042.03;10356454;28;20048;-55
2021/06/22 05:43:47;;;;;;;9.82;7.22;;;;;;;0.01;0.00;59042.03;10356773;28;20378;-56
2021/06/22 05:48:46;;;;;;;17.48;8.35;;;;;;;0.01;0.00;59042.03;10355882;28;20082;-54
2021/06/22 05:53:45;;;;;;;15.32;7.85;;;;;;;0.01;0.00;59042.03;10356668;28;20386;-51
2021/06/22 05:58:44;;;;;;;16.73;8.25;;;;;;;0.01;0.00;59042.03;10356454;28;20389;-56
2021/06/22 06:03:44;;;;;;;15.00;8.65;;;;;;;0.01;0.00;59042.03;10355898;28;20052;-56
2021/06/22 06:08:44;;;;;;;13.23;7.78;;;;;;;0.01;0.00;59042.03;10356286;28;22138;-55
2021/06/22 06:13:43;;;;;;;13.15;6.97;;;;;;;0.01;0.00;59042.03;10356324;28;20074;-54
2021/06/22 06:18:41;;;;;;;15.05;8.82;;;;;;;0.01;0.00;59042.03;10337652;28;20044;-52
2021/06/22 06:23:44;;;;;;;12.88;6.70;;;;;;;0.01;0.00;59042.03;10356102;28;20432;-52
2021/06/22 06:28:45;;;;;;;10.65;5.70;;;;;;;0.01;0.00;59042.03;10355071;28;20095;-52
2021/06/22 06:33:44;;;;;;;14.50;6.03;;;;;;;0.01;0.00;59042.03;10354818;28;20513;-54
2021/06/22 06:38:46;;;;;;;14.88;8.07;;;;;;;0.01;0.00;59042.03;10352712;28;20078;-51
2021/06/22 06:43:46;;;;;;;17.27;6.53;;;;;;;0.01;0.00;59042.03;10341005;28;20086;-49
2021/06/22 06:48:46;;;;;;;15.95;6.55;;;;;;;0.01;0.00;59042.03;10358751;28;20063;-54
2021/06/22 06:53:46;;;;;;;13.18;6.47;;;;;;;0.01;0.00;59042.03;10359218;28;20064;-56
2021/06/22 06:58:45;;;;;;;12.18;4.28;;;;;;;0.01;0.00;59042.03;10357860;28;20480;-53
2021/06/22 07:03:44;;;;;;;6.90;5.47;;;;;;;0.01;0.00;59042.03;10357553;28;20079;-55
2021/06/22 07:08:43;;;;;;;7.30;3.80;;;;;;;0.01;0.00;59042.03;10359384;28;20095;-53
2021/06/22 07:13:44;;;;;;;12.48;4.55;;;;;;;0.01;0.00;59042.03;10360455;28;20075;-54
2021/06/22 07:18:43;;;;;;;8.45;4.30;;;;;;;0.01;0.00;59042.03;10361213;28;20037;-53
2021/06/22 07:23:41;;;;;;;9.30;3.85;;;;;;;0.01;0.00;59042.03;10361104;28;20083;-53
2021/06/22 07:29:02;;;;;;;8.60;4.82;;;;;;;0.01;0.00;59042.03;10361004;28;20094;-53
2021/06/22 07:34:01;;;;;;;12.40;5.32;;;;;;;0.01;0.00;59042.03;10360472;28;20052;-53
2021/06/22 07:39:00;;;;;;;15.63;5.95;;;;;;;0.01;0.00;59042.03;10359527;28;20048;-54
2021/06/22 07:43:59;;;;;;;14.38;6.15;;;;;;;0.01;0.00;59042.03;10360664;28;20050;-54
2021/06/22 07:48:59;;;;;;;8.98;6.05;;;;;;;0.01;0.00;59042.03;10360455;28;20075;-53
2021/06/22 07:53:58;;;;;;;11.02;6.50;;;;;;;0.01;0.00;59042.03;10359752;28;20055;-51
2021/06/22 07:58:57;;;;;;;6.80;5.43;;;;;;;0.01;0.00;59042.03;10359800;28;20386;-55
2021/06/22 08:03:56;;;;;;;5.68;4.70;;;;;;;0.01;0.00;59042.03;10359987;28;20079;-52
2021/06/22 08:08:56;;;;;;;8.68;4.43;;;;;;;0.01;0.00;59042.03;10359729;28;20072;-53
2021/06/22 08:13:55;;;;;;;7.57;4.30;;;;;;;0.01;0.00;59042.03;10358854;28;20036;-53
2021/06/22 08:18:53;;;;;;;4.70;3.45;;;;;;;0.01;0.00;59042.03;10359020;28;20501;-55
2021/06/22 08:23:52;;;;;;;3.67;3.30;;;;;;;0.01;0.00;59042.03;10358220;28;20098;-55
2021/06/22 08:28:52;;;;;;;7.78;3.45;;;;;;;0.01;0.00;59042.03;10358422;28;20482;-56
2021/06/22 08:33:51;;;;;;;7.15;5.22;;;;;;;0.01;0.00;59042.03;10358049;28;20040;-55
2021/06/22 08:38:50;;;;;;;6.78;3.85;;;;;;;0.01;0.00;59042.03;10357724;28;20083;-53
2021/06/22 08:43:52;;;;;;;5.35;3.53;;;;;;;0.01;0.00;59042.03;10358416;28;20249;-54
2021/06/22 08:48:51;;;;;;;4.53;3.53;;;;;;;0.01;0.00;59042.03;10358178;28;20476;-54
2021/06/22 08:54:07;;;;;;;8.13;4.30;;;;;;;0.01;0.00;59042.03;10357411;28;20480;-55
2021/06/22 08:59:07;;;;;;;6.18;3.63;;;;;;;0.01;0.00;59042.03;10358089;28;20036;-54
2021/06/22 09:04:10;;;;;;;5.47;3.13;;;;;;;0.01;0.00;59042.03;10356916;28;20040;-54
2021/06/22 09:09:10;;;;;;;3.72;3.17;;;;;;;0.01;0.00;59042.03;10357021;28;20071;-54
2021/06/22 09:14:10;;;;;;;3.25;2.95;;;;;;;0.01;0.00;59042.03;10356502;28;20048;-53
2021/06/22 09:19:11;;;;;;;4.45;3.22;;;;;;;0.01;0.00;59042.03;10356861;28;20055;-52
2021/06/22 09:24:17;;;;;;;3.17;2.88;;;;;;;0.01;0.00;59042.03;10356370;28;20052;-55
2021/06/22 09:29:20;;;;;;;4.40;3.65;;;;;;;0.01;0.00;59042.03;10355751;28;20099;-53
2021/06/22 09:34:19;;;;;;;4.83;4.33;;;;;;;0.01;0.00;59042.03;10356621;28;20051;-54
2021/06/22 09:39:18;;;;;;;4.03;3.22;;;;;;;0.01;0.00;59042.03;10356172;28;20091;-55
2021/06/22 09:44:22;;;;;;;10.13;4.50;;;;;;;0.01;0.00;59042.03;10356887;28;20051;-54
2021/06/22 09:49:25;;;;;;;3.55;3.25;;;;;;;0.01;0.00;59042.03;10355675;28;20485;-54
2021/06/22 09:54:47;;;;;;;5.30;4.60;;;;;;;0.01;0.00;59042.03;10356240;28;20047;-53
2021/06/22 09:59:52;;;;;;;3.35;3.10;;;;;;;0.01;0.00;59042.03;10356068;28;20047;-54
2021/06/22 10:04:52;;;;;;;5.85;3.95;;;;;;;0.01;0.00;59042.03;10337943;28;20048;-55
2021/06/22 10:09:53;;;;;;;4.00;3.60;;;;;;;0.01;0.00;59042.03;10356000;28;20078;-53
2021/06/22 10:14:59;;;;;;;3.97;3.45;;;;;;;0.01;0.00;59042.03;10359354;28;20044;-55
2021/06/22 10:20:00;;;;;;;5.72;3.83;;;;;;;0.01;0.00;59042.03;10364489;28;20453;-53
2021/06/22 10:25:04;;;;;;;7.32;3.63;;;;;;;0.01;0.00;59042.03;10364393;28;20409;-52
2021/06/22 10:30:07;;;;;;;6.28;4.05;;;;;;;0.01;0.00;59042.03;10363579;28;20091;-50
2021/06/22 10:35:10;;;;;;;5.80;5.22;;;;;;;0.01;0.00;59042.03;10363987;28;20047;-54
2021/06/22 10:40:14;;;;;;;6.23;3.97;;;;;;;0.01;0.00;59042.03;10363144;28;20051;-54
2021/06/22 10:45:15;;;;;;;6.22;4.95;;;;;;;0.01;0.00;59042.03;10362735;28;20044;-54
2021/06/22 10:50:18;;;;;;;8.18;4.75;;;;;;;0.01;0.00;59042.03;10363102;28;20098;-55
2021/06/22 10:55:21;;;;;;;7.20;4.33;;;;;;;0.01;0.00;59042.03;10363142;28;20040;-56
2021/06/22 11:00:21;;;;;;;6.17;5.10;;;;;;;0.01;0.00;59042.03;10363050;28;20290;-56
2021/06/22 11:05:20;;;;;;;5.22;4.63;;;;;;;0.01;0.00;59042.03;10344494;28;20044;-56
2021/06/22 11:10:20;;;;;;;7.97;3.78;;;;;;;0.01;0.00;59042.03;10362026;28;20091;-54
2021/06/22 11:15:19;;;;;;;7.90;4.30;;;;;;;0.01;0.00;59042.03;10362365;28;20445;-55
2021/06/22 11:20:19;;;;;;;6.68;4.07;;;;;;;0.01;0.00;59042.03;10361649;28;20051;-57
2021/06/22 11:25:18;;;;;;;9.43;4.18;;;;;;;0.01;0.00;59042.03;10361647;28;20051;-54
2021/06/22 11:30:38;;;;;;;8.35;3.45;;;;;;;0.01;0.00;59042.03;10359985;28;20521;-55
2021/06/22 11:35:38;;;;;;;7.97;3.85;;;;;;;0.01;0.00;59042.03;10361049;28;20036;-55
2021/06/22 11:40:36;;;;;;;5.13;4.30;;;;;;;0.01;0.00;59042.03;10361037;28;20063;-55
2021/06/22 11:45:36;;;;;;;4.97;3.58;;;;;;;0.01;0.00;59042.03;10360308;28;20055;-49
2021/06/22 11:50:51;;;;;;;8.90;3.83;;;;;;;0.01;0.00;59042.03;10359676;28;20083;-56
2021/06/22 11:55:53;;;;;;;6.38;3.53;;;;;;;0.01;0.00;59042.03;10359739;28;20501;-57
2021/06/22 12:00:53;;;;;;;4.10;3.67;;;;;;;0.01;0.00;59042.03;10360264;28;20052;-54
2021/06/22 12:06:03;;;;;;;4.35;3.92;;;;;;;0.01;0.00;59042.03;10360381;28;20044;-54
2021/06/22 12:11:02;;;;;;;7.05;4.10;;;;;;;0.01;0.00;59042.03;10359406;28;20524;-56
2021/06/22 12:16:14;;;;;;;5.05;3.83;;;;;;;0.01;0.00;59042.03;10359397;28;20036;-56
2021/06/22 12:21:14;;;;;;;4.93;4.43;;;;;;;0.01;0.00;59042.03;10359315;28;20059;-54
2021/06/22 12:26:15;;;;;;;5.88;5.38;;;;;;;0.01;0.00;59042.03;10360096;28;20040;-56
2021/06/22 12:31:15;;;;;;;7.15;4.50;;;;;;;0.01;0.00;59042.03;10358173;28;20501;-54
2021/06/22 12:36:19;;;;;;;8.70;6.05;;;;;;;0.01;0.00;59042.03;10358930;28;20595;-55
2021/06/22 12:41:18;;;;;;;7.38;5.60;;;;;;;0.01;0.00;59042.03;10358925;28;20040;-55
2021/06/22 12:46:19;;;;;;;5.85;4.53;;;;;;;0.01;0.00;59042.03;10359050;28;20044;-52
2021/06/22 12:51:20;;;;;;;6.60;3.83;;;;;;;0.01;0.00;59042.03;10358875;28;20080;-54
2021/06/22 12:56:22;;;;;;;6.57;4.15;;;;;;;0.01;0.00;59042.03;10357930;28;20055;-51
2021/06/22 13:01:33;;;;;;;5.57;4.40;;;;;;;0.01;0.00;59042.03;10358015;28;20472;-53
2021/06/22 13:06:35;;;;;;;5.30;4.90;;;;;;;0.01;0.00;59042.03;10357353;28;20055;-54
2021/06/22 13:11:36;;;;;;;5.25;4.57;;;;;;;0.01;0.00;59042.03;10357476;28;20080;-55
2021/06/22 13:16:34;;;;;;;7.75;4.53;;;;;;;0.01;0.00;59042.03;10358221;28;20040;-53
2021/06/22 13:21:45;;;;;;;8.27;6.28;;;;;;;0.01;0.00;59042.03;10357118;28;20495;-52
2021/06/22 13:26:49;;;;;;;6.55;5.07;;;;;;;0.01;0.00;59042.03;10357276;28;20052;-52
2021/06/22 13:31:52;;;;;;;8.00;5.65;;;;;;;0.01;0.00;59042.03;10356012;28;20098;-48
2021/06/22 13:36:53;;;;;;;9.07;6.00;;;;;;;0.01;0.00;59042.03;10357691;28;20039;-52
2021/06/22 13:41:54;;;;;;;5.93;4.80;;;;;;;0.01;0.00;59042.03;10357495;28;20040;-52
2021/06/22 13:46:53;;;;;;;9.75;5.93;;;;;;;0.01;0.00;59042.03;10356898;28;20048;-54
2021/06/22 13:51:58;;;;;;;11.63;9.32;;;;;;;0.01;0.00;59042.03;10363091;28;20532;-54
2021/06/22 13:56:57;;;;;;;15.27;8.48;;;;;;;0.01;0.00;59042.03;10364761;28;20070;-55
2021/06/22 14:01:56;;;;;;;7.97;5.47;;;;;;;0.01;0.00;59042.03;10365677;28;20055;-55
2021/06/22 14:06:59;;;;;;;6.80;6.10;;;;;;;0.01;0.00;59042.03;10364614;28;20044;-54
2021/06/22 14:11:58;;;;;;;13.43;8.02;;;;;;;0.01;0.00;59042.03;10365061;28;20476;-55
2021/06/22 14:16:57;;;;;;;6.78;4.95;;;;;;;0.01;0.00;59042.03;10364691;28;20052;-54
2021/06/22 14:21:57;;;;;;;7.68;5.07;;;;;;;0.01;0.00;59042.03;10364720;28;20075;-55
2021/06/22 14:27:01;;;;;;;6.65;5.85;;;;;;;0.01;0.00;59042.03;10359457;28;20129;-55
2021/06/22 14:32:00;;;;;;;7.90;5.90;;;;;;;0.01;0.00;59042.03;10345228;28;20911;-54
2021/06/22 14:37:00;;;;;;;10.02;5.82;;;;;;;0.01;0.00;59042.03;10343122;28;20090;-54
2021/06/22 14:41:59;;;;;;;10.40;5.60;;;;;;;0.01;0.00;59042.03;10358504;28;20064;-55
2021/06/22 14:46:58;;;;;;;14.38;10.55;;;;;;;0.01;0.00;59042.03;10362163;28;20082;-56
2021/06/22 14:51:56;;;;;;;5.65;5.25;;;;;;;0.01;0.00;59042.03;10359648;28;20079;-54
2021/06/22 14:56:57;;;;;;;10.70;6.55;;;;;;;0.01;0.00;59042.03;10356755;28;20068;-55
2021/06/22 15:01:55;;;;;;;8.60;7.80;;;;;;;0.01;0.00;59042.03;10359993;28;20493;-53
2021/06/22 15:06:54;;;;;;;8.13;5.70;;;;;;;0.01;0.00;59042.03;10359555;28;20076;-55
2021/06/22 15:11:54;;;;;;;8.98;5.78;;;;;;;0.01;0.00;59042.03;10348644;28;20102;-52
2021/06/22 15:16:54;;;;;;;11.68;8.13;;;;;;;0.01;0.00;59042.03;10359212;28;20041;-55
2021/06/22 15:21:53;;;;;;;6.90;6.30;;;;;;;0.01;0.00;59042.03;10339374;28;20485;-55
2021/06/22 15:26:52;;;;;;;8.88;5.95;;;;;;;0.01;0.00;59042.03;10360028;28;20083;-55
2021/06/22 15:31:52;;;;;;;11.55;6.82;;;;;;;0.01;0.00;59042.03;10360535;28;20094;-56
2021/06/22 15:36:52;;;;;;;15.15;7.97;;;;;;;0.01;0.00;59042.03;10360813;28;20090;-57
2021/06/22 15:41:53;;;;;;;9.67;7.63;;;;;;;0.01;0.00;59042.03;10361954;28;20044;-57
2021/06/22 15:46:52;;;;;;;11.48;8.65;;;;;;;0.01;0.00;59042.03;10360969;28;20409;-53
2021/06/22 15:51:52;;;;;;;11.05;8.75;;;;;;;0.01;0.00;59042.03;10359000;28;20091;-55
2021/06/22 15:56:51;;;;;;;12.48;9.95;;;;;;;0.01;0.00;59042.03;10346270;28;20150;-55
2021/06/22 16:01:50;;;;;;;16.02;9.07;;;;;;;0.01;0.00;59042.03;10351041;28;20145;-53
2021/06/22 16:06:49;;;;;;;11.63;8.75;;;;;;;0.01;0.00;59042.03;10357950;28;20080;-56
2021/06/22 16:11:49;;;;;;;10.18;8.95;;;;;;;0.01;0.00;59042.03;10359373;28;20076;-56
2021/06/22 16:16:50;;;;;;;8.85;7.95;;;;;;;0.01;0.00;59042.03;10356709;28;20532;-57
2021/06/22 16:21:49;;;;;;;14.35;12.45;;;;;;;0.01;0.00;59042.03;10357070;28;20509;-55
2021/06/22 16:26:47;;;;;;;12.65;9.80;;;;;;;0.01;0.00;59042.03;10353375;28;20074;-56
2021/06/22 16:31:47;;;;;;;15.10;8.73;;;;;;;0.01;0.00;59042.03;10356314;28;20090;-56
2021/06/22 16:36:46;;;;;;;9.60;6.47;;;;;;;0.01;0.00;59042.03;10359659;28;20040;-58
2021/06/22 16:41:45;;;;;;;22.42;19.63;;;;;;;0.01;0.00;59042.03;10353325;28;20120;-56
2021/06/22 16:46:44;;;;;;;10.98;8.32;;;;;;;0.01;0.00;59042.03;10358259;28;20048;-59
2021/06/22 16:51:44;;;;;;;16.40;9.48;;;;;;;0.01;0.00;59042.03;10354267;28;20079;-59
2021/06/22 16:56:43;;;;;;;10.18;8.05;;;;;;;0.01;0.00;59042.03;10355987;28;20072;-58
2021/06/22 17:01:44;;;;;;;14.05;9.90;;;;;;;0.01;0.00;59042.03;10354782;28;20032;-57
2021/06/22 17:06:45;;;;;;;14.32;10.60;;;;;;;0.01;0.00;59042.03;10355961;28;20544;-58
2021/06/22 17:11:43;;;;;;;17.15;8.63;;;;;;;0.01;0.00;59042.03;10354970;28;20094;-59
2021/06/22 17:16:42;;;;;;;21.65;14.35;;;;;;;0.01;0.00;59042.03;10350605;28;20067;-58
2021/06/22 17:21:46;;;;;;;16.23;13.23;;;;;;;0.01;0.00;59042.03;10353781;28;20068;-57
2021/06/22 17:26:45;;;;;;;19.15;17.00;;;;;;;0.01;0.00;59042.03;10353028;28;20059;-59
2021/06/22 17:31:44;;;;;;;17.85;15.98;;;;;;;0.01;0.00;59042.03;10355606;28;20167;-59
2021/06/22 17:36:43;;;;;;;13.15;11.75;;;;;;;0.01;0.00;59042.03;10356286;28;20048;-58
2021/06/22 17:41:43;;;;;;;15.57;12.05;;;;;;;0.01;0.00;59042.03;10356384;28;20110;-58
2021/06/22 17:46:42;;;;;;;13.05;11.20;;;;;;;0.01;0.00;59042.03;10355055;28;20528;-58
2021/06/22 17:51:41;;;;;;;12.38;11.18;;;;;;;0.01;0.00;59042.03;10342642;28;20466;-59
2021/06/22 17:56:40;;;;;;;13.40;11.07;;;;;;;0.01;0.00;59042.03;10356919;28;20417;-59
2021/06/22 18:01:41;;;;;;;17.45;14.32;;;;;;;0.01;0.00;59042.03;10357019;28;20048;-59
2021/06/22 18:06:40;;;;;;;17.67;12.82;;;;;;;0.01;0.00;59042.03;10357225;28;20071;-59
2021/06/22 18:11:39;;;;;;;16.88;15.05;;;;;;;0.01;0.00;59042.03;10355091;28;20071;-59
2021/06/22 18:16:38;;;;;;;19.90;14.30;;;;;;;0.01;0.00;59042.03;10355072;28;20616;-55
2021/06/22 18:21:38;;;;;;;15.23;13.70;;;;;;;0.01;0.00;59042.03;10356013;28;20047;-57
2021/06/22 18:26:37;;;;;;;17.52;15.57;;;;;;;0.01;0.00;59042.03;10353974;28;20071;-58
2021/06/22 18:31:36;;;;;;;14.45;12.13;;;;;;;0.01;0.00;59042.03;10353306;28;20079;-52
2021/06/22 18:36:35;;;;;;;15.55;10.10;;;;;;;0.01;0.00;59042.03;10358319;28;20044;-58
2021/06/22 18:41:35;;;;;;;18.52;14.18;;;;;;;0.01;0.00;59042.03;10359980;28;20501;-59
2021/06/22 18:46:34;;;;;;;18.02;11.60;;;;;;;0.01;0.00;59042.03;10362372;28;20086;-58
2021/06/22 18:51:34;;;;;;;23.63;10.70;;;;;;;0.01;0.00;59042.03;10361045;28;20048;-59
2021/06/22 18:56:32;;;;;;;10.38;7.95;;;;;;;0.01;0.00;59042.03;10361095;28;20448;-54
2021/06/22 19:01:35;;;;;;;13.82;10.05;;;;;;;0.01;0.00;59042.03;10356552;28;20086;-59
2021/06/22 19:06:36;;;;;;;15.73;13.95;;;;;;;0.01;0.00;59042.03;10362492;28;20055;-58
2021/06/22 19:11:35;;;;;;;15.68;13.50;;;;;;;0.01;0.00;59042.03;10360863;28;20059;-59
2021/06/22 19:16:35;;;;;;;18.98;17.13;;;;;;;0.01;0.00;59042.03;10341236;28;20064;-56
2021/06/22 19:21:35;;;;;;;16.58;14.85;;;;;;;0.01;0.00;59042.03;10348680;28;20060;-57
2021/06/22 19:26:34;;;;;;;30.20;27.25;;;;;;;0.01;0.00;59042.03;10356085;28;20551;-57
2021/06/22 19:31:33;;;;;;;14.10;12.27;;;;;;;0.01;0.00;59042.03;10359942;28;20517;-58
2021/06/22 19:36:33;;;;;;;24.40;22.02;;;;;;;0.01;0.00;59042.03;10360678;28;20488;-58
2021/06/22 19:41:32;;;;;;;20.75;18.08;;;;;;;0.01;0.00;59042.03;10361008;28;20048;-57
2021/06/22 19:46:31;;;;;;;19.95;17.95;;;;;;;0.01;0.00;59042.03;10354156;28;20072;-58
2021/06/22 19:51:30;;;;;;;16.63;14.70;;;;;;;0.01;0.00;59042.03;10354095;28;20064;-58
2021/06/22 19:56:32;;;;;;;20.05;17.77;;;;;;;0.01;0.00;59042.03;10328584;28;20075;-57
2021/06/22 20:01:30;;;;;;;9.45;8.15;;;;;;;0.01;0.00;59042.03;10317107;28;20080;-57
2021/06/22 20:06:29;;;;;;;32.17;28.75;;;;;;;0.01;0.00;59042.03;10318667;28;20509;-58
2021/06/22 20:11:29;;;;;;;10.18;9.20;;;;;;;0.01;0.00;59042.03;10319147;28;20056;-57
2021/06/22 20:16:28;;;;;;;13.15;11.80;;;;;;;0.01;0.00;59042.03;10319630;28;20074;-57
2021/06/22 20:21:27;;;;;;;13.07;10.75;;;;;;;0.01;0.00;59042.03;10323384;28;20064;-58
2021/06/22 20:26:26;;;;;;;11.63;10.35;;;;;;;0.01;0.00;59042.03;10351886;28;20076;-57
2021/06/22 20:31:27;;;;;;;29.55;18.65;;;;;;;0.01;0.00;59042.03;10357965;28;20092;-57
2021/06/22 20:36:25;;;;;;;27.98;25.13;;;;;;;0.01;0.00;59042.03;10358631;28;20074;-59
2021/06/22 20:41:24;;;;;;;19.45;17.38;;;;;;;0.01;0.00;59042.03;10358898;28;20040;-56
2021/06/22 20:46:25;;;;;;;10.98;9.43;;;;;;;0.01;0.00;59042.03;10357724;28;20090;-57
2021/06/22 20:51:25;;;;;;;9.35;8.32;;;;;;;0.01;0.00;59042.03;10355925;28;20055;-58
2021/06/22 20:56:24;;;;;;;11.90;10.60;;;;;;;0.01;0.00;59042.03;10356077;28;20544;-58
2021/06/22 21:01:23;;;;;;;14.00;9.80;;;;;;;0.01;0.00;59042.03;10356583;28;20070;-57
2021/06/22 21:06:22;;;;;;;15.60;9.85;;;;;;;0.01;0.00;59042.03;10358058;28;20509;-57
2021/06/22 21:11:22;;;;;;;9.60;8.80;;;;;;;0.01;0.00;59042.03;10357523;28;20044;-58
2021/06/22 21:16:21;;;;;;;15.65;9.20;;;;;;;0.01;0.00;59042.03;10357732;28;20076;-58
2021/06/22 21:21:20;;;;;;;12.30;9.30;;;;;;;0.01;0.00;59042.03;10357422;28;20513;-58
2021/06/22 21:26:19;;;;;;;10.95;8.88;;;;;;;0.01;0.00;59042.03;10357504;28;20076;-58
2021/06/22 21:31:19;;;;;;;13.38;8.70;;;;;;;0.01;0.00;59042.03;10356916;28;20052;-58
2021/06/22 21:36:18;;;;;;;10.50;9.18;;;;;;;0.01;0.00;59042.03;10357379;28;20110;-58
2021/06/22 21:41:16;;;;;;;13.13;9.32;;;;;;;0.01;0.00;59042.03;10356949;28;20051;-58
2021/06/22 21:46:15;;;;;;;15.85;9.57;;;;;;;0.01;0.00;59042.03;10356993;28;20047;-58
2021/06/22 21:51:16;;;;;;;13.85;9.50;;;;;;;0.01;0.00;59042.03;10356014;28;20044;-58
2021/06/22 21:56:14;;;;;;;13.45;8.77;;;;;;;0.01;0.00;59042.03;10357407;28;20043;-58
2021/06/22 22:01:13;;;;;;;8.80;7.82;;;;;;;0.01;0.00;59042.03;10356558;28;20063;-55
2021/06/22 22:06:12;;;;;;;9.90;8.73;;;;;;;0.01;0.00;59042.03;10356994;28;20391;-58
2021/06/22 22:11:12;;;;;;;10.10;8.43;;;;;;;0.01;0.00;59042.03;10360538;28;20044;-58
2021/06/22 22:16:11;;;;;;;9.43;7.45;;;;;;;0.01;0.00;59042.03;10363548;28;20076;-58
2021/06/22 22:21:11;;;;;;;10.55;7.55;;;;;;;0.01;0.00;59042.03;10364143;28;20056;-53
2021/06/22 22:26:10;;;;;;;10.50;7.30;;;;;;;0.01;0.00;59042.03;10364739;28;20051;-58
2021/06/22 22:31:10;;;;;;;8.52;7.70;;;;;;;0.01;0.00;59042.03;10345409;28;20059;-56
2021/06/22 22:36:09;;;;;;;10.90;8.63;;;;;;;0.01;0.00;59042.03;10364461;28;20044;-57
2021/06/22 22:41:08;;;;;;;11.65;7.85;;;;;;;0.01;0.00;59042.03;10345298;28;20055;-58
2021/06/22 22:46:07;;;;;;;9.80;8.25;;;;;;;0.01;0.00;59042.03;10363209;28;20493;-57
2021/06/22 22:51:07;;;;;;;9.90;8.50;;;;;;;0.01;0.00;59042.03;10362935;28;20040;-59
2021/06/22 22:56:08;;;;;;;10.65;8.63;;;;;;;0.01;0.00;59042.03;10363693;28;20076;-59
2021/06/22 23:01:07;;;;;;;10.68;9.00;;;;;;;0.01;0.00;59042.03;10363549;28;20047;-58
2021/06/22 23:06:07;;;;;;;14.15;8.95;;;;;;;0.01;0.00;59042.03;10362113;28;20515;-59
2021/06/22 23:11:06;;;;;;;14.50;9.85;;;;;;;0.01;0.00;59042.03;10362140;28;20047;-59
2021/06/22 23:16:06;;;;;;;12.55;9.52;;;;;;;0.01;0.00;59042.03;10361968;28;20056;-58
2021/06/22 23:21:07;;;;;;;17.00;12.93;;;;;;;0.01;0.00;59042.03;10361108;28;20511;-57
2021/06/22 23:26:06;;;;;;;14.93;9.82;;;;;;;0.01;0.00;59042.03;10361906;28;20169;-59
2021/06/22 23:31:05;;;;;;;14.13;11.77;;;;;;;0.01;0.00;59042.03;10360693;28;20059;-58
2021/06/22 23:36:04;;;;;;;20.13;13.68;;;;;;;0.01;0.00;59042.03;10361965;28;20080;-57
2021/06/22 23:41:05;;;;;;;20.67;13.38;;;;;;;0.01;0.00;59042.03;10343099;28;20048;-58